createdAt,value
2022-09-07T00:01:07.031Z,97.01
2022-09-07T00:03:35.666Z,96.80
2022-09-07T00:06:08.838Z,96.84
2022-09-07T00:08:37.045Z,96.50
2022-09-07T00:11:12.153Z,96.33
2022-09-07T00:13:41.633Z,95.84
2022-09-07T00:16:24.445Z,95.72
2022-09-07T00:18:55.737Z,95.52
2022-09-07T00:21:23.442Z,95.98
2022-09-07T00:23:51.571Z,94.65
2022-09-07T00:26:22.576Z,94.54
2022-09-07T00:28:51.248Z,94.32
2022-09-07T00:31:22.292Z,93.46
2022-09-07T00:33:51.756Z,93.35
2022-09-07T00:36:21.080Z,93.25
2022-09-07T00:38:49.496Z,93.06
2022-09-07T00:41:18.131Z,92.91
2022-09-07T00:43:47.426Z,92.92
2022-09-07T00:46:35.040Z,93.04
2022-09-07T00:49:20.314Z,92.76
2022-09-07T00:51:52.668Z,92.71
2022-09-07T00:54:25.366Z,92.68
2022-09-07T00:56:54.782Z,92.70
2022-09-07T00:59:27.973Z,92.71
2022-09-07T01:01:56.124Z,92.90
2022-09-07T01:04:25.208Z,93.08
2022-09-07T01:06:56.282Z,93.03
2022-09-07T01:09:26.746Z,93.41
2022-09-07T01:11:58.621Z,93.51
2022-09-07T01:14:33.142Z,93.70
2022-09-07T01:18:04.533Z,94.15
2022-09-07T01:20:59.837Z,94.89
2022-09-07T01:23:33.235Z,94.75
2022-09-07T01:26:17.837Z,94.74
2022-09-07T01:28:50.585Z,95.17
2022-09-07T01:31:32.747Z,95.56
2022-09-07T01:34:26.240Z,95.86
2022-09-07T01:37:09.662Z,96.06
2022-09-07T01:39:46.643Z,96.22
2022-09-07T01:42:19.441Z,96.67
2022-09-07T01:45:02.485Z,96.42
2022-09-07T01:47:36.570Z,96.58
2022-09-07T01:50:08.665Z,96.80
2022-09-07T01:52:56.257Z,96.85
2022-09-07T01:55:39.743Z,97.07
2022-09-07T01:58:21.303Z,97.39
2022-09-07T02:00:55.185Z,97.84
2022-09-07T02:03:47.204Z,97.82
2022-09-07T02:06:17.914Z,98.28
2022-09-07T02:08:54.298Z,98.19
2022-09-07T02:11:29.325Z,98.48
2022-09-07T02:14:05.514Z,98.65
2022-09-07T02:16:38.263Z,98.80
2022-09-07T02:19:14.774Z,99.58
2022-09-07T02:21:48.002Z,99.64
2022-09-07T02:24:25.922Z,99.78
2022-09-07T02:26:55.570Z,100.00
2022-09-07T02:29:24.560Z,100.00
2022-09-07T02:31:53.773Z,100.00
2022-09-07T02:34:21.567Z,100.00
2022-09-07T02:36:52.117Z,100.00
2022-09-07T02:39:19.973Z,100.00
2022-09-07T02:41:48.143Z,100.00
2022-09-07T02:44:26.259Z,100.00
2022-09-07T02:47:02.179Z,100.00
2022-09-07T02:49:48.374Z,100.00
2022-09-07T02:52:42.662Z,100.00
2022-09-07T02:55:35.183Z,100.00
2022-09-07T02:58:27.359Z,100.00
2022-09-07T03:01:15.264Z,100.00
2022-09-07T03:03:56.197Z,100.00
2022-09-07T03:06:40.134Z,100.00
2022-09-07T03:09:14.514Z,100.00
2022-09-07T03:11:42.239Z,100.00
2022-09-07T03:14:22.491Z,100.00
2022-09-07T03:16:52.527Z,100.00
2022-09-07T03:19:20.249Z,100.00
2022-09-07T03:21:48.487Z,100.00
2022-09-07T03:24:16.213Z,100.00
2022-09-07T03:26:49.561Z,100.00
2022-09-07T03:29:17.591Z,100.00
2022-09-07T03:31:45.412Z,100.00
2022-09-07T03:34:13.241Z,100.00
2022-09-07T03:36:40.947Z,100.00
2022-09-07T03:39:08.756Z,100.00
2022-09-07T03:41:36.519Z,100.00
2022-09-07T03:44:08.314Z,100.00
2022-09-07T03:46:36.645Z,100.00
2022-09-07T03:49:04.548Z,100.00
2022-09-07T03:51:32.484Z,100.00
2022-09-07T03:54:01.466Z,100.00
2022-09-07T03:56:29.275Z,100.00
2022-09-07T03:58:57.136Z,100.00
2022-09-07T04:01:26.882Z,100.00
2022-09-07T04:04:01.765Z,100.00
2022-09-07T04:06:31.053Z,100.00
2022-09-07T04:09:03.031Z,100.00
2022-09-07T04:11:30.834Z,100.00
2022-09-07T04:13:59.143Z,100.00
2022-09-07T04:16:28.211Z,100.00
2022-09-07T04:18:56.142Z,100.00
2022-09-07T04:21:24.958Z,100.00
2022-09-07T04:23:53.550Z,100.00
2022-09-07T04:26:24.189Z,100.00
2022-09-07T04:28:54.222Z,100.00
2022-09-07T04:31:22.796Z,100.00
2022-09-07T04:33:51.541Z,100.00
2022-09-07T04:36:20.443Z,100.00
2022-09-07T04:38:48.978Z,100.00
2022-09-07T04:41:18.750Z,100.00
2022-09-07T04:43:47.705Z,100.00
2022-09-07T04:46:23.236Z,100.00
2022-09-07T04:48:53.503Z,100.00
2022-09-07T04:51:23.115Z,100.00
2022-09-07T04:53:52.823Z,100.00
2022-09-07T04:56:22.639Z,100.00
2022-09-07T04:58:51.046Z,100.00
2022-09-07T05:01:21.753Z,100.00
2022-09-07T05:03:49.935Z,100.00
2022-09-07T05:06:19.554Z,100.00
2022-09-07T05:08:49.965Z,100.00
2022-09-07T05:11:19.177Z,100.00
2022-09-07T05:13:47.340Z,100.00
2022-09-07T05:16:20.987Z,100.00
2022-09-07T05:18:53.758Z,100.00
2022-09-07T05:21:24.122Z,100.00
2022-09-07T05:23:53.539Z,100.00
2022-09-07T05:26:23.926Z,100.00
2022-09-07T05:28:51.987Z,100.00
2022-09-07T05:31:22.351Z,100.00
2022-09-07T05:36:39.314Z,100.00
2022-09-07T05:39:08.105Z,100.00
2022-09-07T05:41:36.001Z,100.00
2022-09-07T05:46:53.314Z,100.00
2022-09-07T05:49:21.147Z,100.00
2022-09-07T05:51:49.409Z,100.00
2022-09-07T05:54:17.168Z,100.00
2022-09-07T05:56:45.006Z,100.00
2022-09-07T05:59:12.739Z,100.00
2022-09-07T06:01:40.740Z,100.00
2022-09-07T06:04:08.505Z,100.00
2022-09-07T06:06:40.026Z,100.00
2022-09-07T06:09:07.903Z,100.00
2022-09-07T06:11:35.696Z,100.00
2022-09-07T06:14:03.547Z,100.00
2022-09-07T06:16:34.401Z,100.00
2022-09-07T06:19:07.817Z,100.00
2022-09-07T06:21:38.132Z,100.00
2022-09-07T06:24:07.495Z,100.00
2022-09-07T06:26:35.449Z,100.00
2022-09-07T06:29:03.738Z,100.00
2022-09-07T06:31:31.952Z,100.00
2022-09-07T06:33:59.973Z,100.00
2022-09-07T06:36:29.300Z,100.00
2022-09-07T06:39:05.670Z,100.00
2022-09-07T06:44:21.282Z,100.00
2022-09-07T06:47:04.906Z,100.00
2022-09-07T06:49:33.073Z,100.00
2022-09-07T06:52:00.878Z,100.00
2022-09-07T06:57:16.698Z,100.00
2022-09-07T06:59:44.399Z,100.00
2022-09-07T07:02:16.080Z,100.00
2022-09-07T07:04:43.830Z,100.00
2022-09-07T07:07:13.526Z,100.00
2022-09-07T07:09:42.560Z,100.00
2022-09-07T07:12:11.689Z,99.72
2022-09-07T07:14:42.676Z,99.31
2022-09-07T07:17:12.823Z,98.86
2022-09-07T07:19:40.574Z,98.28
2022-09-07T07:22:23.879Z,97.59
2022-09-07T07:24:56.074Z,96.92
2022-09-07T07:27:23.896Z,96.64
2022-09-07T07:29:53.495Z,96.38
2022-09-07T07:32:21.292Z,95.64
2022-09-07T07:34:49.333Z,94.86
2022-09-07T07:37:17.323Z,94.24
2022-09-07T07:42:33.771Z,93.41
2022-09-07T07:47:52.641Z,92.33
2022-09-07T07:50:36.013Z,91.53
2022-09-07T07:55:52.191Z,90.62
2022-09-07T07:58:20.675Z,89.92
2022-09-07T08:00:56.936Z,89.41
2022-09-07T08:03:26.206Z,89.17
2022-09-07T08:05:54.907Z,88.96
2022-09-07T08:08:24.200Z,88.73
2022-09-07T08:10:52.149Z,88.46
2022-09-07T08:13:20.271Z,88.19
2022-09-07T08:15:48.026Z,87.77
2022-09-07T08:18:17.940Z,87.50
2022-09-07T08:20:45.765Z,86.91
2022-09-07T08:23:13.553Z,86.85
2022-09-07T08:25:53.663Z,87.22
2022-09-07T08:28:22.827Z,87.46
2022-09-07T08:30:50.848Z,88.06
2022-09-07T08:33:19.060Z,88.40
2022-09-07T08:35:57.397Z,88.64
2022-09-07T08:38:25.894Z,89.00
2022-09-07T08:40:54.100Z,89.23
2022-09-07T08:43:39.687Z,89.38
2022-09-07T08:46:21.667Z,89.57
2022-09-07T08:48:50.184Z,89.80
2022-09-07T08:51:46.498Z,89.68
2022-09-07T08:54:17.473Z,89.75
2022-09-07T08:59:51.199Z,89.89
2022-09-07T09:02:27.604Z,89.75
2022-09-07T09:07:47.513Z,89.32
2022-09-07T09:10:18.440Z,88.24
2022-09-07T09:13:10.672Z,87.93
2022-09-07T09:16:01.758Z,87.20
2022-09-07T09:18:36.763Z,86.75
2022-09-07T09:21:08.965Z,86.08
2022-09-07T09:23:40.729Z,86.08
2022-09-07T09:26:29.360Z,85.74
2022-09-07T09:28:57.037Z,84.43
2022-09-07T09:31:29.601Z,84.60
2022-09-07T09:34:06.462Z,83.71
2022-09-07T09:36:41.270Z,82.02
2022-09-07T09:39:37.694Z,81.24
2022-09-07T09:42:08.408Z,80.01
2022-09-07T09:44:38.654Z,79.05
2022-09-07T09:49:56.391Z,80.22
2022-09-07T09:52:30.140Z,80.04
2022-09-07T09:55:23.231Z,77.98
2022-09-07T10:04:01.512Z,78.71
2022-09-07T10:06:32.147Z,79.04
2022-09-07T10:09:02.917Z,79.00
2022-09-07T10:14:43.544Z,78.19
2022-09-07T10:17:36.383Z,78.19
2022-09-07T10:20:18.975Z,77.39
2022-09-07T10:22:58.178Z,76.49
2022-09-07T10:25:40.786Z,76.66
2022-09-07T10:28:11.223Z,75.62
2022-09-07T10:30:44.941Z,76.26
2022-09-07T10:33:29.875Z,75.96
2022-09-07T10:36:07.460Z,75.19
2022-09-07T10:38:43.267Z,75.74
2022-09-07T10:41:11.565Z,75.85
2022-09-07T10:43:43.986Z,75.92
2022-09-07T10:46:58.319Z,75.46
2022-09-07T10:53:00.206Z,74.14
2022-09-07T10:55:38.922Z,74.07
2022-09-07T11:01:44.707Z,73.47
2022-09-07T11:04:21.297Z,73.47
2022-09-07T11:06:59.528Z,73.30
2022-09-07T11:09:36.534Z,73.08
2022-09-07T11:12:17.757Z,73.30
2022-09-07T11:14:50.946Z,72.69
2022-09-07T11:17:22.802Z,72.81
2022-09-07T11:19:57.061Z,72.86
2022-09-07T11:22:33.932Z,72.27
2022-09-07T11:25:36.697Z,72.04
2022-09-07T11:28:30.381Z,71.53
2022-09-07T11:31:03.574Z,71.25
2022-09-07T11:36:47.232Z,71.15
2022-09-07T11:39:23.181Z,71.49
2022-09-07T11:42:42.651Z,71.55
2022-09-07T11:45:05.810Z,71.54
2022-09-07T11:48:11.553Z,71.45
2022-09-07T11:50:47.498Z,71.44
2022-09-07T11:53:25.409Z,71.35
2022-09-07T11:55:59.467Z,70.94
2022-09-07T11:58:51.295Z,71.04
2022-09-07T12:01:35.117Z,70.76
2022-09-07T12:04:25.976Z,70.86
2022-09-07T12:07:21.878Z,70.64
2022-09-07T12:10:20.610Z,70.56
2022-09-07T12:13:04.148Z,71.02
2022-09-07T12:15:51.033Z,71.09
2022-09-07T12:18:50.731Z,71.00
2022-09-07T12:21:39.382Z,71.16
2022-09-07T12:24:27.099Z,70.94
2022-09-07T12:27:00.514Z,71.16
2022-09-07T12:29:31.138Z,70.63
2022-09-07T12:32:53.649Z,70.70
2022-09-07T12:34:55.327Z,70.72
2022-09-07T12:37:38.469Z,70.70
2022-09-07T12:40:45.334Z,70.26
2022-09-07T12:43:32.433Z,69.92
2022-09-07T12:46:01.916Z,69.79
2022-09-07T12:48:37.948Z,69.74
2022-09-07T12:54:37.109Z,68.75
2022-09-07T12:57:32.442Z,69.07
2022-09-07T13:00:37.452Z,69.07
2022-09-07T13:06:14.396Z,69.39
2022-09-07T13:09:07.467Z,69.25
2022-09-07T13:11:39.283Z,68.63
2022-09-07T13:14:17.895Z,68.61
2022-09-07T13:19:47.861Z,68.90
2022-09-07T13:22:30.430Z,68.62
2022-09-07T13:25:00.956Z,67.87
2022-09-07T13:27:46.292Z,68.03
2022-09-07T13:30:16.894Z,67.47
2022-09-07T13:35:33.063Z,67.56
2022-09-07T13:38:03.279Z,67.52
2022-09-07T13:40:40.258Z,67.11
2022-09-07T13:43:17.551Z,66.79
2022-09-07T13:45:54.336Z,66.56
2022-09-07T13:48:25.153Z,66.64
2022-09-07T13:51:16.588Z,66.40
2022-09-07T13:54:05.720Z,66.09
2022-09-07T13:56:46.151Z,66.15
2022-09-07T13:59:27.468Z,66.69
2022-09-07T14:01:56.365Z,66.78
2022-09-07T14:04:28.239Z,66.87
2022-09-07T14:07:07.842Z,66.70
2022-09-07T14:09:36.223Z,66.75
2022-09-07T14:12:05.440Z,67.16
2022-09-07T14:14:34.332Z,67.29
2022-09-07T14:17:01.936Z,66.80
2022-09-07T14:19:48.922Z,65.88
2022-09-07T14:22:22.439Z,65.56
2022-09-07T14:24:57.865Z,65.88
2022-09-07T14:27:25.729Z,65.10
2022-09-07T14:29:54.138Z,65.24
2022-09-07T14:32:26.335Z,64.84
2022-09-07T14:34:55.264Z,63.41
2022-09-07T14:37:24.418Z,62.03
2022-09-07T14:39:53.855Z,60.94
2022-09-07T14:42:25.648Z,59.92
2022-09-07T14:45:32.949Z,58.67
2022-09-07T14:48:01.012Z,56.37
2022-09-07T14:50:31.932Z,57.31
2022-09-07T14:56:08.940Z,56.45
2022-09-07T14:58:36.662Z,52.93
2022-09-07T15:04:03.828Z,51.52
2022-09-07T15:09:37.504Z,50.29
2022-09-07T15:12:38.245Z,49.48
2022-09-07T15:15:26.726Z,49.32
2022-09-07T15:18:05.907Z,49.11
2022-09-07T15:20:42.569Z,49.33
2022-09-07T15:23:11.834Z,49.50
2022-09-07T15:25:40.888Z,47.62
2022-09-07T15:28:08.855Z,47.11
2022-09-07T15:30:36.541Z,45.96
2022-09-07T15:33:04.133Z,44.37
2022-09-07T15:35:31.928Z,43.47
2022-09-07T15:38:01.787Z,43.22
2022-09-07T15:41:03.620Z,44.01
2022-09-07T15:43:30.627Z,44.13
2022-09-07T15:45:58.438Z,45.15
2022-09-07T15:48:26.575Z,45.35
2022-09-07T15:52:04.911Z,45.95
2022-09-07T15:56:44.420Z,46.53
2022-09-07T15:59:31.288Z,46.33
2022-09-07T16:01:59.424Z,47.03
2022-09-07T16:04:27.440Z,47.33
2022-09-07T16:06:55.798Z,47.45
2022-09-07T16:09:23.470Z,47.22
2022-09-07T16:11:51.712Z,47.49
2022-09-07T16:14:19.694Z,47.88
2022-09-07T16:19:36.017Z,48.06
2022-09-07T16:22:04.398Z,48.53
2022-09-07T16:24:32.390Z,50.24
2022-09-07T16:27:00.083Z,51.70
2022-09-07T16:29:27.857Z,52.21
2022-09-07T16:34:43.153Z,51.35
2022-09-07T16:37:11.265Z,51.05
2022-09-07T16:39:38.974Z,51.12
2022-09-07T16:42:07.086Z,51.20
2022-09-07T16:44:36.201Z,51.75
2022-09-07T16:47:05.470Z,52.56
2022-09-07T16:49:33.232Z,53.30
2022-09-07T16:52:00.925Z,53.82
2022-09-07T16:54:28.709Z,54.13
2022-09-07T16:56:56.565Z,54.25
2022-09-07T16:59:27.769Z,54.65
2022-09-07T17:01:55.527Z,54.96
2022-09-07T17:04:23.369Z,55.23
2022-09-07T17:06:53.558Z,56.14
2022-09-07T17:09:21.810Z,56.98
2022-09-07T17:11:49.488Z,56.99
2022-09-07T17:14:17.149Z,56.94
2022-09-07T17:16:45.182Z,56.83
2022-09-07T17:19:30.894Z,56.89
2022-09-07T17:22:00.745Z,57.71
2022-09-07T17:24:29.594Z,57.82
2022-09-07T17:26:59.623Z,57.80
2022-09-07T17:29:28.151Z,58.08
2022-09-07T17:34:43.433Z,58.68
2022-09-07T17:37:11.462Z,59.42
2022-09-07T17:39:39.911Z,60.09
2022-09-07T17:42:07.659Z,61.30
2022-09-07T17:44:37.989Z,62.03
2022-09-07T17:47:06.757Z,61.96
2022-09-07T17:49:34.501Z,61.51
2022-09-07T17:52:02.812Z,61.31
2022-09-07T17:54:30.546Z,61.33
2022-09-07T17:56:58.227Z,61.57
2022-09-07T18:02:17.030Z,62.10
2022-09-07T18:04:44.851Z,63.02
2022-09-07T18:07:12.837Z,63.00
2022-09-07T18:09:40.548Z,63.16
2022-09-07T18:12:08.279Z,63.40
2022-09-07T18:14:35.990Z,64.45
2022-09-07T18:17:06.393Z,65.87
2022-09-07T18:19:34.026Z,67.12
2022-09-07T18:22:02.836Z,68.20
2022-09-07T18:24:32.167Z,69.60
2022-09-07T18:26:59.817Z,71.13
2022-09-07T18:29:32.189Z,72.01
2022-09-07T18:32:02.466Z,71.58
2022-09-07T18:34:30.380Z,70.50
2022-09-07T18:36:59.322Z,68.81
2022-09-07T18:39:28.302Z,67.28
2022-09-07T18:41:56.466Z,69.23
2022-09-07T18:47:22.090Z,75.49
2022-09-07T18:49:52.554Z,75.64
2022-09-07T18:55:10.906Z,73.75
2022-09-07T18:57:39.220Z,73.92
2022-09-07T19:00:09.103Z,73.84
2022-09-07T19:02:36.961Z,75.89
2022-09-07T19:07:52.883Z,76.65
2022-09-07T19:10:20.507Z,77.43
2022-09-07T19:12:48.258Z,80.37
2022-09-07T19:15:16.141Z,79.63
2022-09-07T19:17:43.933Z,79.86
2022-09-07T19:20:11.718Z,80.70
2022-09-07T19:22:40.087Z,81.43
2022-09-07T19:25:07.919Z,82.12
2022-09-07T19:27:35.688Z,82.73
2022-09-07T19:30:03.418Z,83.17
2022-09-07T19:32:31.141Z,83.71
2022-09-07T19:34:58.842Z,84.23
2022-09-07T19:37:26.682Z,85.43
2022-09-07T19:39:57.879Z,85.93
2022-09-07T19:42:26.369Z,87.23
2022-09-07T19:44:55.181Z,88.37
2022-09-07T19:47:24.293Z,88.85
2022-09-07T19:49:53.326Z,88.53
2022-09-07T19:52:20.991Z,88.94
2022-09-07T19:54:48.602Z,88.73
2022-09-07T19:57:16.348Z,89.12
2022-09-07T19:59:44.024Z,90.22
2022-09-07T20:02:11.794Z,90.66
2022-09-07T20:04:39.489Z,90.85
2022-09-07T20:07:07.697Z,91.20
2022-09-07T20:09:35.353Z,91.64
2022-09-07T20:12:04.839Z,92.37
2022-09-07T20:14:32.461Z,92.61
2022-09-07T20:17:00.174Z,93.39
2022-09-07T20:19:27.927Z,93.03
2022-09-07T20:21:56.926Z,93.64
2022-09-07T20:24:24.660Z,94.79
2022-09-07T20:26:52.431Z,95.00
2022-09-07T20:29:28.561Z,95.85
2022-09-07T20:31:59.232Z,97.56
2022-09-07T20:34:28.264Z,97.94
2022-09-07T20:36:56.293Z,99.14
2022-09-07T20:39:24.338Z,100.00
2022-09-07T20:41:52.360Z,100.00
2022-09-07T20:44:20.397Z,100.00
2022-09-07T20:46:48.352Z,100.00
2022-09-07T20:49:16.999Z,100.00
2022-09-07T20:51:44.667Z,100.00
2022-09-07T20:54:12.495Z,100.00
2022-09-07T20:56:40.163Z,100.00
2022-09-07T20:59:08.016Z,100.00
2022-09-07T21:01:36.240Z,100.00
2022-09-07T21:04:05.038Z,100.00
2022-09-07T21:06:33.991Z,100.00
2022-09-07T21:09:01.819Z,100.00
2022-09-07T21:11:32.407Z,100.00
2022-09-07T21:14:02.442Z,100.00
2022-09-07T21:16:30.294Z,100.00
2022-09-07T21:19:00.421Z,100.00
2022-09-07T21:21:30.015Z,100.00
2022-09-07T21:24:00.414Z,100.00
2022-09-07T21:26:29.541Z,100.00
2022-09-07T21:28:59.409Z,100.00
2022-09-07T21:31:27.851Z,100.00
2022-09-07T21:33:57.253Z,100.00
2022-09-07T21:36:25.505Z,100.00
2022-09-07T21:38:54.189Z,100.00
2022-09-07T21:41:23.226Z,100.00
2022-09-07T21:43:58.663Z,100.00
2022-09-07T21:46:27.292Z,100.00
2022-09-07T21:48:57.165Z,100.00
2022-09-07T21:51:26.046Z,100.00
2022-09-07T21:53:55.232Z,100.00
2022-09-07T21:56:23.148Z,100.00
2022-09-07T21:58:57.456Z,100.00
2022-09-07T22:01:26.452Z,100.00
2022-09-07T22:03:57.999Z,100.00
2022-09-07T22:06:29.018Z,100.00
2022-09-07T22:08:57.303Z,100.00
2022-09-07T22:11:26.955Z,100.00
2022-09-07T22:13:59.519Z,100.00
2022-09-07T22:16:27.519Z,100.00
2022-09-07T22:18:55.889Z,100.00
2022-09-07T22:21:26.290Z,100.00
2022-09-07T22:23:57.202Z,100.00
2022-09-07T22:26:27.208Z,100.00
2022-09-07T22:28:55.821Z,100.00
2022-09-07T22:31:26.516Z,100.00
2022-09-07T22:33:55.729Z,100.00
2022-09-07T22:36:29.025Z,100.00
2022-09-07T22:38:59.519Z,100.00
2022-09-07T22:41:29.930Z,100.00
2022-09-07T22:43:57.943Z,100.00
2022-09-07T22:46:27.898Z,100.00
2022-09-07T22:48:57.790Z,100.00
2022-09-07T22:51:27.733Z,100.00
2022-09-07T22:53:56.136Z,100.00
2022-09-07T22:56:26.998Z,100.00
2022-09-07T22:59:00.729Z,100.00
2022-09-07T23:01:29.803Z,100.00
2022-09-07T23:03:57.994Z,100.00
2022-09-07T23:06:34.633Z,100.00
2022-09-07T23:09:06.554Z,100.00
2022-09-07T23:11:35.003Z,100.00
2022-09-07T23:14:05.423Z,100.00
2022-09-07T23:16:33.213Z,100.00
2022-09-07T23:19:01.826Z,100.00
2022-09-07T23:21:30.003Z,100.00
2022-09-07T23:23:59.756Z,100.00
2022-09-07T23:26:30.047Z,100.00
2022-09-07T23:29:03.053Z,100.00
2022-09-07T23:31:32.547Z,100.00
2022-09-07T23:34:00.872Z,100.00
2022-09-07T23:36:29.411Z,100.00
2022-09-07T23:38:58.306Z,100.00
2022-09-07T23:41:27.233Z,100.00
2022-09-07T23:43:56.032Z,100.00
2022-09-07T23:46:24.386Z,100.00
2022-09-07T23:48:52.301Z,100.00
2022-09-07T23:51:23.870Z,100.00
2022-09-07T23:53:53.110Z,100.00
2022-09-07T23:56:21.728Z,100.00
2022-09-07T23:58:49.557Z,100.00
